Time;durP1;ratioP1;P1;durP2;ratioP2;P2;SDS_P1;SDS_P2;PMS_P1;PMS_P2;Temp;Humidity;BMP_temperature;BMP_pressure;BME280_temperature;BME280_humidity;BME280_pressure;Samples;Min_cycle;Max_cycle;Signal;HPM_P1;HPM_P2
2021/07/09 00:01:45;;;;;;;15.23;13.83;;;17.30;99.90;;;;;;5043335;28;20851;-74
2021/07/09 00:04:14;;;;;;;13.60;12.40;;;17.20;99.90;;;;;;5042879;28;20579;-72
2021/07/09 00:06:41;;;;;;;15.17;13.67;;;17.20;99.90;;;;;;5046588;28;20700;-72
2021/07/09 00:09:09;;;;;;;14.27;13.07;;;17.20;99.90;;;;;;5058727;28;20442;-72
2021/07/09 00:11:38;;;;;;;18.20;16.50;;;17.20;99.90;;;;;;5062449;28;20478;-72
2021/07/09 00:14:07;;;;;;;20.50;18.60;;;17.20;99.90;;;;;;5058810;28;20480;-73
2021/07/09 00:16:34;;;;;;;21.10;19.07;;;17.20;99.90;;;;;;5056784;28;20569;-72
2021/07/09 00:19:03;;;;;;;22.70;20.70;;;17.20;99.90;;;;;;5052194;28;20518;-72
2021/07/09 00:21:31;;;;;;;21.47;19.37;;;17.30;99.90;;;;;;5051783;28;20453;-73
2021/07/09 00:23:58;;;;;;;23.50;21.20;;;17.30;99.90;;;;;;5057382;28;20506;-72
2021/07/09 00:26:26;;;;;;;23.50;21.30;;;17.30;99.90;;;;;;5035546;28;20459;-73
2021/07/09 00:28:53;;;;;;;21.60;19.70;;;17.30;99.90;;;;;;5043904;28;20445;-72
2021/07/09 00:31:20;;;;;;;23.03;20.67;;;17.30;99.90;;;;;;5042259;28;20462;-72
2021/07/09 00:33:47;;;;;;;22.17;20.00;;;17.20;99.90;;;;;;5037309;28;20447;-73
2021/07/09 00:36:13;;;;;;;21.53;19.43;;;17.20;99.90;;;;;;5033434;28;20454;-73
2021/07/09 00:38:40;;;;;;;18.37;16.47;;;17.20;99.90;;;;;;5031187;28;20449;-73
2021/07/09 00:41:07;;;;;;;15.83;14.70;;;17.20;99.90;;;;;;5034635;28;20446;-73
2021/07/09 00:43:35;;;;;;;16.70;15.37;;;17.10;99.90;;;;;;5035039;28;20445;-73
2021/07/09 00:46:02;;;;;;;14.97;13.80;;;17.00;99.90;;;;;;5033299;28;20456;-73
2021/07/09 00:48:29;;;;;;;15.03;13.83;;;17.00;99.90;;;;;;5030964;28;20457;-73
2021/07/09 00:50:58;;;;;;;14.07;12.90;;;17.00;99.90;;;;;;5039539;28;20464;-73
2021/07/09 00:53:24;;;;;;;14.37;12.87;;;17.00;99.90;;;;;;5041535;28;20480;-73
2021/07/09 00:55:52;;;;;;;13.40;12.10;;;16.90;99.90;;;;;;5031137;28;20462;-73
2021/07/09 00:58:19;;;;;;;11.53;10.70;;;16.80;99.90;;;;;;5041050;28;20556;-73
2021/07/09 01:00:47;;;;;;;10.90;10.00;;;16.70;99.90;;;;;;5043222;28;20471;-73
2021/07/09 01:03:14;;;;;;;9.67;8.87;;;16.70;99.90;;;;;;5029865;28;20800;-73
2021/07/09 01:05:41;;;;;;;9.30;8.50;;;16.70;99.90;;;;;;5038309;28;20463;-73
2021/07/09 01:08:08;;;;;;;10.33;9.43;;;16.60;99.90;;;;;;5035683;28;20451;-73
2021/07/09 01:10:35;;;;;;;8.50;7.90;;;16.60;99.90;;;;;;5039167;28;20494;-73
2021/07/09 01:13:03;;;;;;;8.23;7.73;;;16.50;99.90;;;;;;5029571;28;20454;-73
2021/07/09 01:15:30;;;;;;;10.80;9.90;;;16.50;99.90;;;;;;5036387;28;20460;-73
2021/07/09 01:17:58;;;;;;;11.70;10.60;;;16.50;99.90;;;;;;5038202;28;20593;-73
2021/07/09 01:20:25;;;;;;;9.30;8.60;;;16.50;99.90;;;;;;5037724;28;20536;-73
2021/07/09 01:22:52;;;;;;;7.70;7.20;;;16.50;99.90;;;;;;5033455;28;20459;-73
2021/07/09 01:25:22;;;;;;;7.73;7.20;;;16.50;99.90;;;;;;5034334;28;20449;-73
2021/07/09 01:27:51;;;;;;;7.70;7.20;;;16.50;99.90;;;;;;5036628;28;20459;-73
2021/07/09 01:30:20;;;;;;;8.03;7.53;;;16.40;99.90;;;;;;5035921;28;20450;-73
2021/07/09 01:32:47;;;;;;;8.93;8.23;;;16.40;99.90;;;;;;5037931;28;20466;-73
2021/07/09 01:35:15;;;;;;;10.70;9.80;;;16.30;99.90;;;;;;5039316;28;20480;-73
2021/07/09 01:37:42;;;;;;;15.47;14.00;;;16.30;99.90;;;;;;5034379;28;20538;-72
2021/07/09 01:40:12;;;;;;;19.80;17.80;;;16.30;99.90;;;;;;5037893;28;20922;-72
2021/07/09 01:42:40;;;;;;;17.00;15.60;;;16.30;99.90;;;;;;5036905;28;20448;-72
2021/07/09 01:45:08;;;;;;;17.37;15.80;;;16.30;99.90;;;;;;5036131;28;20453;-72
2021/07/09 01:47:35;;;;;;;18.50;17.10;;;16.20;99.90;;;;;;5035983;28;20453;-73
2021/07/09 01:50:05;;;;;;;20.23;18.10;;;16.20;99.90;;;;;;5034777;28;20468;-73
2021/07/09 01:52:32;;;;;;;21.20;19.00;;;16.10;99.90;;;;;;5039194;28;20493;-73
2021/07/09 01:55:00;;;;;;;24.70;22.30;;;16.10;99.90;;;;;;5036637;28;20783;-73
2021/07/09 01:57:27;;;;;;;26.37;22.43;;;16.10;99.90;;;;;;5022366;28;20461;-73
2021/07/09 01:59:55;;;;;;;24.77;20.70;;;16.10;99.90;;;;;;5037432;28;20758;-73
2021/07/09 02:02:22;;;;;;;22.10;19.20;;;16.10;99.90;;;;;;5030857;28;21075;-73
2021/07/09 02:04:51;;;;;;;24.80;19.00;;;16.10;99.90;;;;;;5035283;28;20956;-73
2021/07/09 02:07:19;;;;;;;25.07;19.57;;;16.10;99.90;;;;;;5035006;28;20438;-73
2021/07/09 02:09:48;;;;;;;19.83;17.27;;;16.10;99.90;;;;;;5035787;28;20551;-72
2021/07/09 02:12:17;;;;;;;29.10;18.40;;;16.00;99.90;;;;;;5030212;28;20468;-72
2021/07/09 02:14:44;;;;;;;18.80;17.17;;;16.00;99.90;;;;;;5034772;28;20444;-73
2021/07/09 02:17:15;;;;;;;17.87;15.97;;;15.90;99.90;;;;;;5029452;28;20468;-73
2021/07/09 02:19:43;;;;;;;16.77;15.13;;;15.90;99.90;;;;;;5034363;28;20468;-73
2021/07/09 02:22:13;;;;;;;17.00;15.40;;;15.80;99.90;;;;;;5043224;28;20480;-73
2021/07/09 02:24:40;;;;;;;20.37;18.47;;;15.80;99.90;;;;;;5035022;28;20565;-73
2021/07/09 02:27:08;;;;;;;15.57;14.27;;;15.90;99.90;;;;;;5039872;28;21070;-73
2021/07/09 02:29:36;;;;;;;17.07;15.17;;;15.90;99.90;;;;;;5036502;28;21103;-73
2021/07/09 02:32:05;;;;;;;16.67;15.07;;;15.90;99.90;;;;;;5038596;28;20463;-73
2021/07/09 02:34:34;;;;;;;16.87;15.33;;;15.80;99.90;;;;;;5040462;28;20843;-73
2021/07/09 02:37:01;;;;;;;15.90;14.40;;;15.80;99.90;;;;;;5036824;28;20452;-73
2021/07/09 02:39:28;;;;;;;17.17;15.67;;;15.90;99.90;;;;;;5045507;28;20551;-73
2021/07/09 02:41:56;;;;;;;18.07;16.27;;;15.80;99.90;;;;;;5048530;28;20503;-73
2021/07/09 02:44:24;;;;;;;22.77;17.93;;;15.80;99.90;;;;;;5044675;28;20541;-73
2021/07/09 02:46:51;;;;;;;21.37;19.17;;;15.80;99.90;;;;;;5040841;28;20442;-73
2021/07/09 02:49:18;;;;;;;24.20;19.90;;;15.90;99.90;;;;;;5040867;28;20449;-73
2021/07/09 02:51:46;;;;;;;22.80;19.00;;;15.80;99.90;;;;;;5042670;28;20452;-73
2021/07/09 02:54:13;;;;;;;22.33;20.03;;;15.80;99.90;;;;;;5037049;28;20565;-73
2021/07/09 02:56:40;;;;;;;26.80;21.50;;;15.80;99.90;;;;;;5035399;28;21026;-73
2021/07/09 02:59:07;;;;;;;26.00;20.53;;;15.80;99.90;;;;;;5031959;28;20806;-73
2021/07/09 03:01:38;;;;;;;22.70;20.50;;;15.80;99.90;;;;;;5031960;28;20447;-73
2021/07/09 03:04:05;;;;;;;21.70;19.50;;;15.90;99.90;;;;;;5036354;28;20459;-73
2021/07/09 03:06:32;;;;;;;21.70;18.93;;;15.80;99.90;;;;;;5043273;28;20426;-73
2021/07/09 03:09:01;;;;;;;18.60;16.70;;;15.80;99.90;;;;;;5034295;28;20535;-73
2021/07/09 03:11:29;;;;;;;21.37;19.03;;;15.90;99.90;;;;;;5035790;28;20480;-73
2021/07/09 03:13:56;;;;;;;21.57;19.33;;;15.80;99.90;;;;;;5038964;28;20918;-73
2021/07/09 03:16:23;;;;;;;19.30;17.40;;;15.80;99.90;;;;;;5033801;28;20469;-73
2021/07/09 03:18:49;;;;;;;18.00;16.33;;;15.90;99.90;;;;;;5036077;28;20454;-73
2021/07/09 03:21:17;;;;;;;18.57;16.83;;;15.90;99.90;;;;;;5032283;28;21302;-73
2021/07/09 03:23:43;;;;;;;17.93;16.30;;;15.90;99.90;;;;;;5039021;28;20465;-73
2021/07/09 03:26:11;;;;;;;19.10;17.30;;;15.90;99.90;;;;;;5035163;28;22986;-73
2021/07/09 03:28:38;;;;;;;18.60;16.90;;;15.90;99.90;;;;;;5030396;28;20457;-74
2021/07/09 03:31:06;;;;;;;22.17;19.87;;;15.90;99.90;;;;;;5033333;28;21015;-74
2021/07/09 03:33:33;;;;;;;20.97;18.97;;;15.90;99.90;;;;;;5031308;28;20473;-74
2021/07/09 03:36:00;;;;;;;22.60;20.43;;;15.90;99.90;;;;;;5035021;28;20476;-74
2021/07/09 03:38:26;;;;;;;21.87;19.77;;;15.90;99.90;;;;;;5030954;28;20800;-75
2021/07/09 03:40:53;;;;;;;21.07;18.97;;;15.90;99.90;;;;;;5031410;28;20541;-74
2021/07/09 03:43:21;;;;;;;24.67;22.13;;;16.10;99.90;;;;;;5035018;28;20901;-74
2021/07/09 03:45:48;;;;;;;24.40;21.90;;;16.10;99.90;;;;;;5035139;28;20454;-73
2021/07/09 03:48:15;;;;;;;25.30;22.70;;;16.10;99.90;;;;;;5034725;28;20462;-74
2021/07/09 03:50:42;;;;;;;24.77;22.17;;;16.10;99.90;;;;;;5025540;28;20524;-74
2021/07/09 03:53:09;;;;;;;24.77;22.27;;;16.20;99.90;;;;;;5027680;28;20644;-74
2021/07/09 03:55:36;;;;;;;24.23;21.33;;;16.20;99.90;;;;;;5036393;28;20514;-73
2021/07/09 03:58:03;;;;;;;26.33;23.60;;;16.30;99.90;;;;;;5033807;28;20551;-74
2021/07/09 04:00:31;;;;;;;23.73;21.37;;;16.40;99.90;;;;;;5030954;28;20445;-74
2021/07/09 04:02:58;;;;;;;24.00;21.70;;;16.50;99.90;;;;;;5034586;28;20554;-74
2021/07/09 04:05:25;;;;;;;22.60;20.50;;;16.60;99.90;;;;;;5033309;28;20464;-75
2021/07/09 04:07:52;;;;;;;19.50;17.90;;;16.70;99.90;;;;;;5036740;28;20546;-74
2021/07/09 04:10:20;;;;;;;21.90;19.90;;;16.60;99.90;;;;;;5032087;28;20450;-75
2021/07/09 04:12:47;;;;;;;21.20;19.27;;;16.70;99.90;;;;;;5031916;28;20469;-74
2021/07/09 04:15:14;;;;;;;21.80;19.80;;;16.70;99.90;;;;;;5035542;28;20544;-75
2021/07/09 04:17:42;;;;;;;19.83;17.87;;;16.70;99.90;;;;;;5037665;28;20479;-74
2021/07/09 04:20:10;;;;;;;16.30;15.00;;;16.80;99.90;;;;;;5036294;28;20540;-74
2021/07/09 04:22:37;;;;;;;18.90;17.20;;;16.70;99.90;;;;;;5037206;28;20488;-74
2021/07/09 04:25:05;;;;;;;18.63;16.60;;;16.70;99.90;;;;;;5035271;28;20454;-75
2021/07/09 04:27:32;;;;;;;20.37;18.40;;;16.70;99.90;;;;;;5032315;28;20478;-73
2021/07/09 04:29:59;;;;;;;18.27;16.63;;;16.80;99.90;;;;;;5031835;28;20458;-74
2021/07/09 04:32:31;;;;;;;18.47;16.87;;;16.80;99.90;;;;;;5038933;28;20444;-74
2021/07/09 04:34:59;;;;;;;18.47;16.60;;;16.80;99.90;;;;;;5029389;28;20461;-74
2021/07/09 04:37:26;;;;;;;19.37;17.57;;;16.80;99.90;;;;;;5035409;28;20544;-75
2021/07/09 04:39:52;;;;;;;17.93;16.17;;;16.80;99.90;;;;;;5033925;28;20536;-74
2021/07/09 04:42:19;;;;;;;19.43;17.43;;;16.80;99.90;;;;;;5040091;28;21163;-73
2021/07/09 04:44:46;;;;;;;16.97;15.57;;;16.80;99.90;;;;;;5032526;28;20602;-73
2021/07/09 04:47:13;;;;;;;17.87;16.37;;;16.80;99.90;;;;;;5037068;28;20460;-73
2021/07/09 04:49:40;;;;;;;17.37;15.67;;;16.90;99.90;;;;;;5032215;28;20901;-73
2021/07/09 04:52:08;;;;;;;18.43;16.70;;;16.90;99.90;;;;;;5032763;28;22200;-73
2021/07/09 04:54:35;;;;;;;17.10;15.60;;;17.00;99.90;;;;;;5033666;28;20503;-73
2021/07/09 04:57:02;;;;;;;16.87;15.47;;;17.00;99.90;;;;;;5024540;28;20451;-74
2021/07/09 04:59:29;;;;;;;15.33;14.10;;;17.10;99.90;;;;;;5034285;28;20555;-73
2021/07/09 05:01:56;;;;;;;14.50;13.30;;;17.00;99.90;;;;;;5035588;28;20548;-74
2021/07/09 05:04:23;;;;;;;15.23;13.90;;;17.10;99.90;;;;;;5035032;28;20861;-73
2021/07/09 05:06:50;;;;;;;13.80;12.63;;;17.20;99.90;;;;;;5038843;28;20568;-73
2021/07/09 05:09:18;;;;;;;15.00;13.70;;;17.20;99.90;;;;;;5028251;28;20473;-74
2021/07/09 05:11:45;;;;;;;15.37;13.93;;;17.20;99.90;;;;;;5035355;28;20450;-73
2021/07/09 05:14:13;;;;;;;14.70;13.60;;;17.10;99.90;;;;;;5033730;28;20481;-75
2021/07/09 05:16:39;;;;;;;14.47;13.30;;;17.10;99.90;;;;;;5033612;28;20474;-75
2021/07/09 05:19:07;;;;;;;12.00;11.10;;;17.00;99.90;;;;;;5037660;28;20445;-75
2021/07/09 05:21:34;;;;;;;14.43;13.23;;;17.00;99.90;;;;;;5036461;28;21020;-75
2021/07/09 05:24:04;;;;;;;15.10;13.83;;;16.90;99.90;;;;;;5036028;28;21203;-72
2021/07/09 05:26:33;;;;;;;12.87;11.87;;;16.90;99.90;;;;;;5036256;28;20475;-73
2021/07/09 05:29:00;;;;;;;13.63;12.53;;;16.80;99.90;;;;;;5031862;28;20562;-74
2021/07/09 05:31:27;;;;;;;13.70;12.60;;;16.80;99.90;;;;;;5033900;28;20534;-74
2021/07/09 05:33:54;;;;;;;14.47;13.37;;;16.80;99.90;;;;;;5035359;28;20481;-73
2021/07/09 05:36:21;;;;;;;14.63;13.17;;;16.80;99.90;;;;;;5036157;28;20463;-74
2021/07/09 05:38:48;;;;;;;14.30;13.13;;;16.90;99.90;;;;;;5044173;28;20972;-77
2021/07/09 05:41:15;;;;;;;15.40;14.00;;;16.80;99.90;;;;;;5043878;28;20474;-78
2021/07/09 05:43:43;;;;;;;13.43;12.20;;;16.80;99.90;;;;;;5051139;28;21179;-79
2021/07/09 05:46:11;;;;;;;15.63;14.23;;;16.80;99.90;;;;;;5044737;28;20485;-75
2021/07/09 05:48:38;;;;;;;14.83;13.47;;;16.80;99.90;;;;;;5044042;28;20464;-74
2021/07/09 05:51:05;;;;;;;14.20;13.00;;;16.90;99.90;;;;;;5046775;28;20453;-78
2021/07/09 05:53:32;;;;;;;14.80;13.60;;;16.90;99.90;;;;;;5045370;28;20469;-77
2021/07/09 05:56:01;;;;;;;15.33;14.00;;;16.90;99.90;;;;;;5045217;28;20452;-75
2021/07/09 05:58:28;;;;;;;14.53;13.03;;;16.80;99.90;;;;;;5050026;28;21012;-78
2021/07/09 06:00:56;;;;;;;15.60;14.20;;;16.80;99.90;;;;;;5047744;28;20533;-75
2021/07/09 06:03:23;;;;;;;15.00;13.67;;;16.80;99.90;;;;;;5043744;28;20466;-75
2021/07/09 06:05:50;;;;;;;15.93;14.63;;;16.80;99.90;;;;;;5041701;28;20462;-75
2021/07/09 06:08:17;;;;;;;16.37;14.97;;;16.80;99.90;;;;;;5038448;28;20457;-75
2021/07/09 06:10:44;;;;;;;19.10;17.13;;;16.80;99.90;;;;;;5041739;28;20879;-75
2021/07/09 06:13:11;;;;;;;17.57;15.87;;;16.70;99.90;;;;;;5045767;28;20983;-75
2021/07/09 06:15:38;;;;;;;19.50;17.70;;;16.70;99.90;;;;;;5050058;28;20477;-76
2021/07/09 06:18:06;;;;;;;18.20;16.60;;;16.80;99.90;;;;;;5042138;28;20453;-75
2021/07/09 06:20:33;;;;;;;15.83;14.33;;;16.80;99.90;;;;;;5033058;28;20855;-76
2021/07/09 06:23:00;;;;;;;15.20;13.90;;;16.80;99.90;;;;;;5043322;28;20486;-81
2021/07/09 06:25:29;;;;;;;15.00;13.80;;;16.70;99.90;;;;;;5039380;28;20453;-79
2021/07/09 06:27:56;;;;;;;16.27;14.00;;;16.70;99.90;;;;;;5037937;28;21405;-79
2021/07/09 06:30:22;;;;;;;16.30;14.93;;;16.80;99.90;;;;;;5040930;28;20531;-79
2021/07/09 06:32:49;;;;;;;17.83;16.27;;;16.80;99.90;;;;;;5039473;28;20543;-79
2021/07/09 06:35:18;;;;;;;16.67;14.77;;;16.80;99.90;;;;;;5040263;28;20468;-79
2021/07/09 06:37:45;;;;;;;17.80;16.20;;;16.80;99.90;;;;;;5046337;28;20453;-80
2021/07/09 06:40:12;;;;;;;15.67;14.30;;;16.80;99.90;;;;;;5047408;28;20441;-77
2021/07/09 06:42:39;;;;;;;16.73;15.33;;;16.80;99.90;;;;;;5041260;28;20453;-78
2021/07/09 06:45:07;;;;;;;14.17;12.97;;;16.70;99.90;;;;;;5047816;28;21204;-79
2021/07/09 06:47:34;;;;;;;14.87;13.37;;;16.60;99.90;;;;;;5039213;28;20485;-78
2021/07/09 06:50:01;;;;;;;14.67;13.20;;;16.40;99.90;;;;;;5045966;28;20998;-77
2021/07/09 06:52:29;;;;;;;13.23;12.00;;;15.90;99.90;;;;;;5041365;28;20489;-78
2021/07/09 06:54:56;;;;;;;13.67;12.30;;;15.70;99.90;;;;;;5041867;28;20468;-79
2021/07/09 06:57:23;;;;;;;11.13;10.03;;;15.60;99.90;;;;;;5048398;28;20444;-78
2021/07/09 06:59:50;;;;;;;9.17;8.17;;;15.40;99.90;;;;;;5044151;28;20475;-79
2021/07/09 07:02:17;;;;;;;8.97;8.20;;;15.20;99.90;;;;;;5055946;28;22423;-77
2021/07/09 07:04:44;;;;;;;9.63;8.83;;;15.10;99.90;;;;;;5057422;28;20471;-79
2021/07/09 07:07:11;;;;;;;10.10;8.63;;;15.00;99.90;;;;;;5050322;28;20453;-78
2021/07/09 07:09:39;;;;;;;10.50;9.50;;;14.80;99.90;;;;;;5046732;28;20440;-79
2021/07/09 07:12:08;;;;;;;11.40;9.57;;;14.80;99.90;;;;;;5046722;28;20673;-78
2021/07/09 07:14:35;;;;;;;10.83;9.53;;;14.70;99.90;;;;;;5050709;28;20473;-78
2021/07/09 07:17:02;;;;;;;11.00;10.00;;;14.60;99.90;;;;;;5039637;28;20478;-78
2021/07/09 07:19:29;;;;;;;10.57;9.57;;;14.60;99.90;;;;;;5037118;28;20445;-79
2021/07/09 07:21:58;;;;;;;10.80;9.80;;;14.70;99.90;;;;;;5044123;28;20469;-79
2021/07/09 07:24:26;;;;;;;10.50;7.50;;;14.70;99.90;;;;;;5042849;28;20505;-77
2021/07/09 07:26:54;;;;;;;15.33;8.93;;;14.70;99.90;;;;;;5036570;28;20464;-79
2021/07/09 07:29:22;;;;;;;14.20;12.80;;;14.70;99.90;;;;;;5043126;28;20517;-80
2021/07/09 07:31:48;;;;;;;9.93;8.93;;;14.80;99.90;;;;;;5039273;28;20205;-76
2021/07/09 07:34:15;;;;;;;10.20;7.60;;;14.70;99.90;;;;;;5044284;28;20492;-76
2021/07/09 07:36:42;;;;;;;7.70;6.90;;;14.80;99.90;;;;;;5042546;28;21248;-76
2021/07/09 07:39:10;;;;;;;6.07;5.57;;;14.70;99.90;;;;;;5042477;28;20971;-76
2021/07/09 07:41:38;;;;;;;6.60;6.00;;;14.70;99.90;;;;;;5041224;28;20510;-76
2021/07/09 07:44:07;;;;;;;6.63;5.90;;;14.70;99.90;;;;;;5037316;28;20780;-76
2021/07/09 07:46:34;;;;;;;6.17;5.57;;;14.60;99.90;;;;;;5040224;28;20920;-76
2021/07/09 07:49:01;;;;;;;6.53;5.90;;;14.60;99.90;;;;;;5035857;28;20497;-74
2021/07/09 07:51:28;;;;;;;4.83;4.53;;;14.60;99.90;;;;;;5045020;28;20915;-75
2021/07/09 07:53:55;;;;;;;8.63;5.83;;;14.60;99.90;;;;;;5043086;28;20476;-75
2021/07/09 07:56:22;;;;;;;5.60;5.10;;;14.60;99.90;;;;;;5039614;28;20468;-75
2021/07/09 07:58:51;;;;;;;5.43;4.87;;;14.60;99.90;;;;;;5043688;28;20456;-77
2021/07/09 08:01:20;;;;;;;6.85;5.50;;;14.60;99.90;;;;;;5042902;28;20446;-79
2021/07/09 08:03:47;;;;;;;6.73;5.63;;;14.60;99.90;;;;;;5046902;28;20662;-79
2021/07/09 08:06:17;;;;;;;5.80;5.30;;;14.60;99.90;;;;;;5046707;28;21247;-79
2021/07/09 08:08:44;;;;;;;4.97;4.57;;;14.60;99.90;;;;;;5044327;28;20523;-78
2021/07/09 08:11:12;;;;;;;5.43;4.93;;;14.60;99.90;;;;;;5045929;28;20516;-77
2021/07/09 08:13:40;;;;;;;4.90;4.50;;;14.60;99.90;;;;;;5047992;28;20439;-77
2021/07/09 08:16:07;;;;;;;5.53;5.13;;;14.60;99.90;;;;;;5039483;28;20538;-77
2021/07/09 08:18:36;;;;;;;5.53;5.07;;;14.70;99.90;;;;;;5040199;28;20481;-77
2021/07/09 08:21:04;;;;;;;4.63;4.33;;;14.70;99.90;;;;;;5041302;28;20956;-77
2021/07/09 08:23:31;;;;;;;5.03;4.73;;;14.70;99.90;;;;;;5052026;28;20450;-78
2021/07/09 08:25:59;;;;;;;5.10;4.70;;;14.70;99.90;;;;;;5046007;28;20542;-77
2021/07/09 08:28:27;;;;;;;5.60;5.20;;;14.70;99.90;;;;;;5045712;28;20443;-77
2021/07/09 08:30:54;;;;;;;6.40;5.80;;;14.70;99.90;;;;;;5043025;28;20454;-79
2021/07/09 08:33:21;;;;;;;7.90;7.30;;;14.70;99.90;;;;;;5043771;28;20443;-79
2021/07/09 08:35:50;;;;;;;8.47;7.77;;;14.70;99.90;;;;;;5035635;28;20521;-78
2021/07/09 08:38:17;;;;;;;7.33;6.67;;;14.70;99.90;;;;;;5040012;28;20480;-76
2021/07/09 08:40:44;;;;;;;10.70;7.43;;;14.70;99.90;;;;;;5040520;28;20860;-77
2021/07/09 08:43:11;;;;;;;6.87;6.13;;;14.70;99.90;;;;;;5046250;28;20817;-76
2021/07/09 08:45:40;;;;;;;7.70;5.90;;;14.60;99.90;;;;;;5040189;28;20451;-77
2021/07/09 08:48:09;;;;;;;7.80;7.20;;;14.60;99.90;;;;;;5032477;28;20472;-77
2021/07/09 08:50:36;;;;;;;7.27;6.57;;;14.60;99.90;;;;;;5038801;28;20640;-76
2021/07/09 08:53:05;;;;;;;13.33;7.27;;;14.60;99.90;;;;;;5039416;28;20516;-76
2021/07/09 08:55:32;;;;;;;9.53;7.47;;;14.50;99.90;;;;;;5037567;28;20487;-75
2021/07/09 08:57:59;;;;;;;14.10;8.10;;;14.50;99.90;;;;;;5044426;28;20514;-77
2021/07/09 09:00:43;;;;;;;11.93;9.63;;;14.60;99.90;;;;;;5039403;28;20450;-76
2021/07/09 09:03:19;;;;;;;9.70;8.67;;;14.60;99.90;;;;;;5038304;28;20488;-77
2021/07/09 09:05:47;;;;;;;11.00;10.00;;;14.70;99.90;;;;;;5045986;28;20468;-77
2021/07/09 09:08:17;;;;;;;12.47;10.23;;;14.80;99.90;;;;;;5046180;28;20455;-78
2021/07/09 09:10:46;;;;;;;12.10;11.00;;;14.80;99.90;;;;;;5034598;28;20507;-78
2021/07/09 09:13:16;;;;;;;9.93;9.03;;;14.80;99.90;;;;;;5041276;28;20474;-78
2021/07/09 09:15:45;;;;;;;8.80;8.00;;;15.00;99.90;;;;;;5049146;28;20549;-79
2021/07/09 09:18:25;;;;;;;9.17;8.37;;;15.00;99.90;;;;;;5039260;28;20444;-77
2021/07/09 09:21:00;;;;;;;10.43;9.43;;;15.10;99.90;;;;;;5042991;28;20460;-80
2021/07/09 09:23:29;;;;;;;11.87;10.67;;;15.10;99.90;;;;;;5042517;28;20505;-80
2021/07/09 09:25:57;;;;;;;8.97;8.17;;;15.20;99.90;;;;;;5044834;28;20651;-79
2021/07/09 09:28:24;;;;;;;10.00;9.20;;;15.20;99.90;;;;;;5043247;28;20452;-82
2021/07/09 09:30:53;;;;;;;8.77;7.97;;;15.30;99.90;;;;;;5054769;28;20449;-80
2021/07/09 09:33:21;;;;;;;8.07;7.47;;;15.20;99.90;;;;;;5055489;28;20446;-80
2021/07/09 09:35:53;;;;;;;6.40;5.90;;;15.20;99.90;;;;;;5054212;28;20519;-78
2021/07/09 09:38:25;;;;;;;6.73;6.23;;;15.20;99.90;;;;;;5049735;28;20936;-79
2021/07/09 09:40:54;;;;;;;6.90;6.30;;;15.20;99.90;;;;;;5047261;28;20905;-80
2021/07/09 09:43:24;;;;;;;5.83;5.33;;;15.20;99.90;;;;;;5051288;28;20439;-79
2021/07/09 09:46:02;;;;;;;6.00;5.50;;;15.30;99.90;;;;;;5045208;28;20865;-79
2021/07/09 09:48:50;;;;;;;5.63;5.23;;;15.30;99.90;;;;;;5034246;28;20921;-79
2021/07/09 09:51:28;;;;;;;7.23;4.90;;;15.30;99.90;;;;;;5042552;28;20698;-79
2021/07/09 09:53:56;;;;;;;6.00;5.50;;;15.40;99.90;;;;;;5048843;28;21035;-80
2021/07/09 09:56:43;;;;;;;5.60;5.20;;;15.50;99.90;;;;;;5042483;28;20471;-80
2021/07/09 09:59:16;;;;;;;5.00;4.70;;;15.50;99.90;;;;;;5039087;28;20457;-79
2021/07/09 10:01:51;;;;;;;5.63;5.33;;;15.50;99.90;;;;;;5044293;28;20536;-79
2021/07/09 10:04:18;;;;;;;5.73;5.23;;;15.60;99.90;;;;;;5052260;28;20533;-79
2021/07/09 10:06:46;;;;;;;6.33;5.93;;;15.60;99.90;;;;;;5052149;28;20459;-79
2021/07/09 10:09:14;;;;;;;6.30;5.77;;;15.60;99.90;;;;;;5047877;28;20445;-79
2021/07/09 10:11:44;;;;;;;5.90;5.50;;;15.60;99.90;;;;;;5044988;28;20474;-79
2021/07/09 10:14:13;;;;;;;5.13;4.80;;;15.70;99.90;;;;;;5049055;28;20456;-79
2021/07/09 10:16:42;;;;;;;6.33;5.83;;;15.80;99.90;;;;;;5038432;28;20515;-78
2021/07/09 10:19:11;;;;;;;5.87;5.47;;;15.80;99.90;;;;;;5040952;28;20850;-81
2021/07/09 10:21:38;;;;;;;4.97;4.60;;;15.80;99.90;;;;;;5030490;28;20572;-74
2021/07/09 10:24:07;;;;;;;5.60;5.20;;;15.80;99.90;;;;;;5041793;28;20470;-72
2021/07/09 10:26:35;;;;;;;5.00;4.60;;;15.90;99.90;;;;;;5055884;28;20519;-77
2021/07/09 10:29:14;;;;;;;5.40;4.97;;;16.00;99.90;;;;;;5040900;28;20525;-75
2021/07/09 10:31:42;;;;;;;4.90;4.60;;;16.10;99.90;;;;;;5032155;28;20452;-75
2021/07/09 10:34:37;;;;;;;5.00;4.60;;;16.20;99.90;;;;;;5035933;28;20453;-76
2021/07/09 10:37:06;;;;;;;4.40;4.00;;;16.20;99.90;;;;;;5037495;28;20924;-75
2021/07/09 10:39:38;;;;;;;4.50;4.20;;;16.10;99.90;;;;;;5040101;28;20462;-76
2021/07/09 10:42:28;;;;;;;4.23;3.93;;;16.20;99.90;;;;;;5042942;28;22092;-76
2021/07/09 10:45:02;;;;;;;3.73;3.53;;;16.30;99.90;;;;;;5043025;28;20913;-76
2021/07/09 10:47:41;;;;;;;5.00;4.50;;;16.40;99.90;;;;;;5036140;28;20539;-75
2021/07/09 10:50:11;;;;;;;3.90;3.60;;;16.50;99.90;;;;;;5028577;28;20460;-76
2021/07/09 10:52:57;;;;;;;3.40;3.20;;;16.50;99.90;;;;;;5022408;28;20444;-75
2021/07/09 10:55:56;;;;;;;4.30;4.00;;;16.50;99.90;;;;;;5038900;28;20536;-75
2021/07/09 10:58:29;;;;;;;3.37;3.17;;;16.60;99.90;;;;;;5039889;28;20450;-75
2021/07/09 11:00:59;;;;;;;3.57;3.37;;;16.60;99.90;;;;;;5034760;28;20531;-75
2021/07/09 11:03:31;;;;;;;3.60;3.30;;;16.50;99.90;;;;;;5034059;28;20588;-76
2021/07/09 11:06:04;;;;;;;2.43;2.30;;;16.50;99.90;;;;;;5037884;28;20519;-75
2021/07/09 11:08:40;;;;;;;3.00;2.80;;;16.60;99.90;;;;;;5036833;28;20463;-76
2021/07/09 11:11:09;;;;;;;3.60;3.40;;;16.60;99.90;;;;;;5036524;28;20827;-76
2021/07/09 11:13:49;;;;;;;3.10;2.90;;;16.80;99.90;;;;;;5040164;28;20535;-74
2021/07/09 11:16:22;;;;;;;2.80;2.60;;;16.90;97.80;;;;;;5034210;28;20462;-74
2021/07/09 11:18:55;;;;;;;3.00;2.80;;;16.90;97.80;;;;;;5037571;28;20454;-73
2021/07/09 11:21:58;;;;;;;3.03;2.83;;;17.10;97.10;;;;;;5027491;28;20470;-73
2021/07/09 11:24:28;;;;;;;2.63;2.53;;;17.40;95.30;;;;;;5028058;28;20454;-76
2021/07/09 11:26:57;;;;;;;2.47;2.30;;;17.40;93.90;;;;;;5024575;28;20635;-73
2021/07/09 11:29:36;;;;;;;2.43;2.33;;;17.60;93.60;;;;;;5038978;28;20466;-74
2021/07/09 11:32:07;;;;;;;2.10;2.00;;;17.70;92.00;;;;;;5040431;28;20449;-73
2021/07/09 11:34:36;;;;;;;2.73;2.23;;;17.90;91.40;;;;;;5038489;28;20485;-74
2021/07/09 11:37:05;;;;;;;2.30;1.87;;;18.20;90.80;;;;;;5042232;28;20498;-74
2021/07/09 11:39:35;;;;;;;2.23;2.03;;;18.80;90.00;;;;;;5046764;28;20926;-73
2021/07/09 11:42:05;;;;;;;2.00;1.80;;;18.80;88.00;;;;;;5041204;28;20531;-74
2021/07/09 11:44:34;;;;;;;1.60;1.50;;;19.00;87.90;;;;;;5044583;28;20765;-75
2021/07/09 11:47:04;;;;;;;1.53;1.43;;;19.00;87.00;;;;;;5044341;28;20457;-74
2021/07/09 11:49:33;;;;;;;1.20;1.20;;;18.80;85.90;;;;;;5036615;28;20446;-73
2021/07/09 11:52:03;;;;;;;2.10;1.70;;;18.60;86.10;;;;;;5035724;28;20454;-73
2021/07/09 11:54:33;;;;;;;1.60;1.50;;;18.50;85.70;;;;;;5037399;28;20738;-74
2021/07/09 11:57:04;;;;;;;1.20;1.20;;;18.50;85.60;;;;;;5040948;28;20449;-74
2021/07/09 11:59:32;;;;;;;1.07;1.07;;;18.50;84.40;;;;;;5038796;28;20515;-74
2021/07/09 12:02:14;;;;;;;2.00;0.97;;;18.60;84.20;;;;;;5041815;28;20456;-74
2021/07/09 12:04:44;;;;;;;1.80;1.60;;;18.60;82.60;;;;;;5047646;28;20468;-78
2021/07/09 12:07:26;;;;;;;1.40;0.90;;;18.80;83.00;;;;;;5046950;28;20458;-78
2021/07/09 12:09:59;;;;;;;1.20;1.10;;;18.90;81.90;;;;;;5043716;28;20454;-78
2021/07/09 12:12:28;;;;;;;0.90;0.90;;;18.90;83.10;;;;;;5046995;28;20449;-78
2021/07/09 12:15:01;;;;;;;1.00;0.90;;;18.90;82.10;;;;;;5053677;28;20852;-78
2021/07/09 12:17:31;;;;;;;0.90;0.90;;;18.70;83.10;;;;;;5041853;28;20471;-79
2021/07/09 12:20:06;;;;;;;1.10;1.10;;;18.70;82.60;;;;;;5052627;28;20981;-76
2021/07/09 12:22:35;;;;;;;1.90;1.20;;;18.80;82.70;;;;;;5040164;28;20520;-77
2021/07/09 12:25:04;;;;;;;1.27;1.17;;;18.80;84.00;;;;;;5041924;28;20451;-77
2021/07/09 12:27:32;;;;;;;3.33;1.40;;;18.90;85.30;;;;;;5036989;28;20453;-77
2021/07/09 12:30:03;;;;;;;1.00;1.00;;;19.00;84.20;;;;;;5031457;28;20981;-77
2021/07/09 12:32:32;;;;;;;1.67;1.40;;;18.90;86.50;;;;;;5033473;28;20522;-77
2021/07/09 12:35:05;;;;;;;1.63;1.53;;;19.00;85.00;;;;;;5029601;28;20542;-77
2021/07/09 12:37:32;;;;;;;1.40;1.30;;;19.20;86.50;;;;;;5029447;28;20560;-75
2021/07/09 12:40:13;;;;;;;1.40;1.30;;;19.30;86.40;;;;;;5038437;28;20487;-76
2021/07/09 12:42:39;;;;;;;2.90;1.80;;;19.40;85.70;;;;;;5033161;28;20447;-75
2021/07/09 12:45:08;;;;;;;1.90;1.60;;;19.50;86.10;;;;;;5038710;28;20533;-77